Главная страница
METAR-TAF:

METAR-TAF

Аэропорты :

Kramfors, Швеция

широта: 63-03N, долгота: 017-46E, высота над уровнем моря: 10 м

Текущие метеонаблюдения

Эта сводка был подготовлена 38 минут назад, в 14:20 UTC
Ветер 8 Узел от южный
Температура 5°C
Влажность 48%
Давление 1021 hPa
Видимость 10 км и более

METAR: ESNK 221420Z AUTO 17008KT 9999 NCD 05/M05 Q1021

Время: 15:58 (14:58 UTC)

Прогноз

Эта сводка был подготовлена 28 минут назад, в 14:30 UTC
Прогноз действительный с 22-го 15 UTC до 22-го 20 UTC
Ветер 13 Узел от юго-юго-восточный
Видимость 10 км и более
Нет облачности ниже 1500 м, и нет кучево-дождевой облачности

TAF: ESNK 221430Z 2215/2220 16013KT CAVOK

Метеонаблюдения и прогнозы для более 4000 аэропортов (сводки METAR и TAF).

Имеющиеся станции представлены на карте желтыми и красными точками.

Чтобы увидеть название станции, наведите на нее мышь.

Затем щелкните, чтобы увидеть метеонаблюдения и метеопрогнозы.

Управление картой: чтобы увеличить масштаб, щелкните зеленые кнопки с черным крестиком; чтобы уменьшить масштаб, щелкните зеленую кнопку с тире; для просмотра соседних карт щелкайте зеленые стрелки.


METAR-TAF: